Time;durP1;ratioP1;P1;durP2;ratioP2;P2;SDS_P1;SDS_P2;PMS_P1;PMS_P2;Temp;Humidity;BMP_temperature;BMP_pressure;BME280_temperature;BME280_humidity;BME280_pressure;Samples;Min_cycle;Max_cycle;Signal;HPM_P1;HPM_P2
2022/08/30 00:02:28;;;;;;;13.85;6.75;;;26.30;67.50;;;;;;5015604;28;20194;-83
2022/08/30 00:05:00;;;;;;;16.23;6.63;;;26.20;67.50;;;;;;5017771;28;20231;-84
2022/08/30 00:07:30;;;;;;;13.20;6.72;;;26.20;67.90;;;;;;5011230;28;20237;-84
2022/08/30 00:10:09;;;;;;;15.82;6.88;;;26.20;68.30;;;;;;5014063;28;20650;-85
2022/08/30 00:12:38;;;;;;;15.13;6.10;;;26.10;68.30;;;;;;5016611;28;20287;-86
2022/08/30 00:15:08;;;;;;;12.88;6.57;;;26.10;68.40;;;;;;5015583;28;20263;-83
2022/08/30 00:17:39;;;;;;;13.32;5.93;;;26.10;68.60;;;;;;5012520;28;20854;-82
2022/08/30 00:20:12;;;;;;;17.15;6.68;;;26.00;68.80;;;;;;5019342;28;20204;-82
2022/08/30 00:22:42;;;;;;;13.80;6.88;;;26.00;69.00;;;;;;5015382;28;20488;-81
2022/08/30 00:25:11;;;;;;;13.18;7.43;;;26.00;69.40;;;;;;5016959;28;20199;-83
2022/08/30 00:27:40;;;;;;;11.65;6.63;;;26.00;69.90;;;;;;5008405;28;20204;-82
2022/08/30 00:30:11;;;;;;;13.73;6.65;;;26.00;69.70;;;;;;5017255;28;20615;-82
2022/08/30 00:32:39;;;;;;;13.45;7.30;;;25.90;70.00;;;;;;5018840;28;20192;-82
2022/08/30 00:35:09;;;;;;;18.33;7.03;;;25.90;70.20;;;;;;5016953;28;20196;-82
2022/08/30 00:37:38;;;;;;;14.23;6.97;;;25.90;70.40;;;;;;5012892;28;20713;-83
2022/08/30 00:40:10;;;;;;;12.30;6.93;;;25.80;70.20;;;;;;5018918;28;20204;-81
2022/08/30 00:42:39;;;;;;;16.60;6.93;;;25.80;70.20;;;;;;5015473;28;20841;-82
2022/08/30 00:45:15;;;;;;;12.15;6.80;;;25.80;70.20;;;;;;5019097;28;20196;-82
2022/08/30 00:47:44;;;;;;;13.57;6.70;;;25.80;70.60;;;;;;5019902;28;20203;-82
2022/08/30 00:50:16;;;;;;;12.20;6.72;;;25.80;70.90;;;;;;5022967;28;20689;-82
2022/08/30 00:52:47;;;;;;;16.20;6.90;;;25.80;70.80;;;;;;5016129;28;20603;-83
2022/08/30 00:55:19;;;;;;;13.48;7.25;;;25.70;70.80;;;;;;5018642;28;20191;-84
2022/08/30 00:57:51;;;;;;;13.45;6.88;;;25.70;70.80;;;;;;5011299;28;20197;-83
2022/08/30 01:00:20;;;;;;;16.90;6.97;;;25.70;70.80;;;;;;5014005;28;20201;-79
2022/08/30 01:02:49;;;;;;;12.48;6.70;;;25.60;70.70;;;;;;5009796;28;20220;-79
2022/08/30 01:05:21;;;;;;;11.50;6.32;;;25.60;70.80;;;;;;5019831;28;20869;-82
2022/08/30 01:07:49;;;;;;;16.20;7.07;;;25.60;70.90;;;;;;5017833;28;21760;-84
2022/08/30 01:10:19;;;;;;;14.50;6.35;;;25.60;70.90;;;;;;5013671;28;20574;-82
2022/08/30 01:12:48;;;;;;;15.75;6.68;;;25.60;71.20;;;;;;5019679;28;20191;-82
2022/08/30 01:15:17;;;;;;;10.25;6.18;;;25.60;71.30;;;;;;5016369;28;20188;-83
2022/08/30 01:17:48;;;;;;;10.73;6.60;;;25.60;71.40;;;;;;5020758;28;21670;-82
2022/08/30 01:20:24;;;;;;;10.93;6.45;;;25.60;71.40;;;;;;5020429;28;20196;-82
2022/08/30 01:23:11;;;;;;;17.90;6.15;;;25.50;71.50;;;;;;5019791;28;20246;-82
2022/08/30 01:25:41;;;;;;;13.32;6.70;;;25.50;71.30;;;;;;5019710;28;20863;-82
2022/08/30 01:28:13;;;;;;;12.18;6.65;;;25.40;71.40;;;;;;5023936;28;20200;-82
2022/08/30 01:30:42;;;;;;;13.35;6.18;;;25.40;71.30;;;;;;5021162;28;21057;-82
2022/08/30 01:33:12;;;;;;;14.20;6.45;;;25.40;71.40;;;;;;5020134;28;20199;-82
2022/08/30 01:35:48;;;;;;;10.63;6.72;;;25.40;71.30;;;;;;5018692;28;20207;-82
2022/08/30 01:38:21;;;;;;;10.60;6.88;;;25.40;71.40;;;;;;5018429;28;20196;-82
2022/08/30 01:40:50;;;;;;;16.35;7.25;;;25.40;71.30;;;;;;5018442;28;20984;-82
2022/08/30 01:43:19;;;;;;;12.68;6.70;;;25.40;71.10;;;;;;5021416;28;20198;-82
2022/08/30 01:45:47;;;;;;;16.50;7.72;;;25.40;71.10;;;;;;5019363;28;20195;-81
2022/08/30 01:48:16;;;;;;;14.18;6.55;;;25.40;71.10;;;;;;5022055;28;20195;-81
2022/08/30 01:50:44;;;;;;;11.48;6.25;;;25.40;71.00;;;;;;5019644;28;20828;-81
2022/08/30 01:53:13;;;;;;;13.18;6.80;;;25.40;71.10;;;;;;5022066;28;20212;-81
2022/08/30 01:55:43;;;;;;;16.75;6.47;;;25.40;71.10;;;;;;5015745;28;20253;-80
2022/08/30 01:58:12;;;;;;;15.27;6.65;;;25.40;71.20;;;;;;5021190;28;20203;-80
2022/08/30 02:00:41;;;;;;;11.68;6.32;;;25.40;71.20;;;;;;5016932;28;20797;-82
2022/08/30 02:03:09;;;;;;;13.05;6.82;;;25.40;71.10;;;;;;5022004;28;20287;-81
2022/08/30 02:05:38;;;;;;;14.00;6.47;;;25.40;71.10;;;;;;5020083;28;20709;-82
2022/08/30 02:08:06;;;;;;;14.32;7.15;;;25.40;71.10;;;;;;5019238;28;20771;-80
2022/08/30 02:10:35;;;;;;;11.07;6.95;;;25.40;71.10;;;;;;5018895;28;20227;-81
2022/08/30 02:13:05;;;;;;;14.27;7.25;;;25.40;71.10;;;;;;5013590;28;20206;-82
2022/08/30 02:15:34;;;;;;;19.70;6.88;;;25.30;71.20;;;;;;5018001;28;20657;-84
2022/08/30 02:18:10;;;;;;;14.50;7.13;;;25.30;71.60;;;;;;5018697;28;20725;-81
2022/08/30 02:20:39;;;;;;;15.48;7.95;;;25.30;72.10;;;;;;5017562;28;20202;-81
2022/08/30 02:23:08;;;;;;;16.55;7.60;;;25.20;72.60;;;;;;5013876;28;20198;-83
2022/08/30 02:25:36;;;;;;;16.00;7.18;;;25.20;72.40;;;;;;5019314;28;20199;-85
2022/08/30 02:28:06;;;;;;;12.45;6.38;;;25.10;73.00;;;;;;5012617;28;20209;-83
2022/08/30 02:30:36;;;;;;;14.95;6.82;;;25.00;73.00;;;;;;5017358;28;20246;-83
2022/08/30 02:33:04;;;;;;;10.32;6.28;;;25.00;72.90;;;;;;5013073;28;20277;-83
2022/08/30 02:35:33;;;;;;;12.18;6.78;;;25.00;72.60;;;;;;5020943;28;20207;-83
2022/08/30 02:38:02;;;;;;;18.30;7.07;;;25.00;72.60;;;;;;5017549;28;20207;-82
2022/08/30 02:40:30;;;;;;;11.90;5.60;;;25.00;72.70;;;;;;5018697;28;20203;-83
2022/08/30 02:42:59;;;;;;;10.40;5.35;;;24.90;72.60;;;;;;5018561;28;20276;-84
2022/08/30 02:45:29;;;;;;;13.55;5.93;;;24.90;72.50;;;;;;5019609;28;20208;-82
2022/08/30 02:47:58;;;;;;;13.40;5.63;;;24.90;72.50;;;;;;5017642;28;20291;-83
2022/08/30 02:50:27;;;;;;;15.18;5.30;;;24.90;72.20;;;;;;5017384;28;20219;-83
2022/08/30 02:52:56;;;;;;;20.75;5.20;;;24.90;72.10;;;;;;5018344;28;20203;-82
2022/08/30 02:55:25;;;;;;;13.50;5.15;;;24.90;71.90;;;;;;5015517;28;20748;-83
2022/08/30 02:57:53;;;;;;;11.10;4.70;;;24.90;71.80;;;;;;5014723;28;20210;-84
2022/08/30 03:00:22;;;;;;;11.63;5.30;;;24.90;71.80;;;;;;5014186;28;20773;-83
2022/08/30 03:02:52;;;;;;;10.55;5.20;;;24.90;71.70;;;;;;5016838;28;20786;-83
2022/08/30 03:05:20;;;;;;;16.52;5.32;;;24.90;71.60;;;;;;5019199;28;20307;-84
2022/08/30 03:07:50;;;;;;;14.38;4.90;;;24.90;71.50;;;;;;5017066;28;20302;-83
2022/08/30 03:10:19;;;;;;;13.68;4.88;;;24.90;71.40;;;;;;5019601;28;20325;-86
2022/08/30 03:12:48;;;;;;;15.30;5.40;;;25.00;71.10;;;;;;5013786;28;20206;-82
2022/08/30 03:15:17;;;;;;;18.13;5.13;;;25.00;71.00;;;;;;5017936;28;20206;-86
2022/08/30 03:17:45;;;;;;;15.55;5.65;;;24.90;70.70;;;;;;5016585;28;20310;-85
2022/08/30 03:20:16;;;;;;;13.48;5.53;;;24.90;70.70;;;;;;5019331;28;20654;-84
2022/08/30 03:22:44;;;;;;;13.57;5.00;;;24.90;70.50;;;;;;5017688;28;20294;-84
2022/08/30 03:25:13;;;;;;;12.93;4.75;;;25.00;70.40;;;;;;5019647;28;20234;-85
2022/08/30 03:27:42;;;;;;;14.05;5.18;;;25.00;70.30;;;;;;5014756;28;20204;-83
2022/08/30 03:30:12;;;;;;;15.32;5.15;;;25.00;71.00;;;;;;5019404;28;20215;-84
2022/08/30 03:32:41;;;;;;;15.18;4.80;;;25.00;70.20;;;;;;5018999;28;20192;-84
2022/08/30 03:35:11;;;;;;;13.55;4.43;;;25.00;70.00;;;;;;5017405;28;20290;-87
2022/08/30 03:37:44;;;;;;;12.50;4.30;;;25.00;69.70;;;;;;5014694;28;20204;-84
2022/08/30 03:40:15;;;;;;;13.18;5.00;;;25.00;69.40;;;;;;5017433;28;20194;-82
2022/08/30 03:42:46;;;;;;;9.20;4.20;;;25.00;69.10;;;;;;5019374;28;20207;-84
2022/08/30 03:45:17;;;;;;;11.15;4.28;;;25.00;68.90;;;;;;5017402;28;20211;-86
2022/08/30 03:47:45;;;;;;;10.82;4.50;;;25.00;68.80;;;;;;5011838;28;20370;-83
2022/08/30 03:50:15;;;;;;;16.00;4.57;;;25.10;68.80;;;;;;5021401;28;20704;-83
2022/08/30 03:52:45;;;;;;;10.18;4.82;;;25.10;68.70;;;;;;5021284;28;20215;-82
2022/08/30 03:55:14;;;;;;;13.35;4.80;;;25.20;68.80;;;;;;5020552;28;20203;-82
2022/08/30 03:57:42;;;;;;;13.52;5.47;;;25.20;68.80;;;;;;5005882;28;20238;-84
2022/08/30 04:00:12;;;;;;;17.75;5.13;;;25.20;68.90;;;;;;5010056;28;20196;-80
2022/08/30 04:02:51;;;;;;;11.98;4.10;;;25.20;68.90;;;;;;5016481;28;20566;-83
2022/08/30 04:05:23;;;;;;;12.75;4.30;;;25.20;69.00;;;;;;5012142;28;20202;-83
2022/08/30 04:07:56;;;;;;;11.45;4.57;;;25.20;69.00;;;;;;5016881;28;20786;-84
2022/08/30 04:10:25;;;;;;;8.73;3.70;;;25.30;69.10;;;;;;5011804;28;20321;-84
2022/08/30 04:12:53;;;;;;;14.90;4.32;;;25.30;69.00;;;;;;5007081;28;20200;-84
2022/08/30 04:15:22;;;;;;;12.98;4.15;;;25.30;68.90;;;;;;5019589;28;20203;-82
2022/08/30 04:17:52;;;;;;;12.50;4.10;;;25.40;69.10;;;;;;5013356;28;20211;-84
2022/08/30 04:20:21;;;;;;;12.05;4.05;;;25.40;69.10;;;;;;5017843;28;20206;-83
2022/08/30 04:22:52;;;;;;;8.70;4.20;;;25.50;69.30;;;;;;5018850;28;20199;-84
2022/08/30 04:25:22;;;;;;;13.65;4.60;;;25.50;69.30;;;;;;5020105;28;20202;-84
2022/08/30 04:27:50;;;;;;;10.85;5.13;;;25.50;69.30;;;;;;5017486;28;20204;-81
2022/08/30 04:30:19;;;;;;;9.02;4.25;;;25.60;69.50;;;;;;5017966;28;20223;-84
2022/08/30 04:32:47;;;;;;;11.32;4.00;;;25.60;69.40;;;;;;5022888;28;20199;-79
2022/08/30 04:35:19;;;;;;;8.63;4.30;;;25.60;69.50;;;;;;5018851;28;20207;-85
2022/08/30 04:37:48;;;;;;;9.27;4.13;;;25.70;69.60;;;;;;5023277;28;20199;-85
2022/08/30 04:40:17;;;;;;;8.02;3.47;;;25.60;69.50;;;;;;5017403;28;20196;-85
2022/08/30 04:42:47;;;;;;;10.55;4.57;;;25.70;69.40;;;;;;5023599;28;20676;-83
2022/08/30 04:45:16;;;;;;;16.00;4.30;;;25.70;69.40;;;;;;5020470;28;20251;-83
2022/08/30 04:47:45;;;;;;;15.68;4.38;;;25.80;69.50;;;;;;5024338;28;20206;-82
2022/08/30 04:50:17;;;;;;;9.15;3.92;;;25.80;69.40;;;;;;5018279;28;20219;-82
2022/08/30 04:52:48;;;;;;;8.75;3.97;;;25.90;69.40;;;;;;5017639;28;20195;-85
2022/08/30 04:55:17;;;;;;;8.75;3.70;;;25.90;69.40;;;;;;5015633;28;20203;-83
2022/08/30 04:57:49;;;;;;;12.45;4.72;;;25.90;69.50;;;;;;5016824;28;21608;-84
2022/08/30 05:00:20;;;;;;;7.43;4.35;;;26.00;69.80;;;;;;5022773;28;20195;-83
2022/08/30 05:02:49;;;;;;;10.48;4.32;;;26.00;69.60;;;;;;5023397;28;20195;-86
2022/08/30 05:05:39;;;;;;;9.55;4.35;;;26.10;69.60;;;;;;5021817;28;20192;-88
2022/08/30 05:08:09;;;;;;;9.75;4.15;;;26.10;69.60;;;;;;5022114;28;20231;-82
2022/08/30 05:10:39;;;;;;;8.93;4.18;;;26.10;69.50;;;;;;5015112;28;20712;-79
2022/08/30 05:13:10;;;;;;;13.18;4.75;;;26.20;69.50;;;;;;5020682;28;20203;-82
2022/08/30 05:15:39;;;;;;;8.70;3.92;;;26.20;69.40;;;;;;5019638;28;20565;-82
2022/08/30 05:18:09;;;;;;;9.43;4.43;;;26.20;69.40;;;;;;5028774;28;20290;-80
2022/08/30 05:20:45;;;;;;;9.80;4.00;;;26.30;69.40;;;;;;5024756;28;20227;-82
2022/08/30 05:23:14;;;;;;;9.77;4.15;;;26.30;69.40;;;;;;5022643;28;20215;-81
2022/08/30 05:25:44;;;;;;;11.23;3.90;;;26.40;69.30;;;;;;5019834;28;20557;-82
2022/08/30 05:28:14;;;;;;;10.07;3.90;;;26.40;69.40;;;;;;5015141;28;20670;-80
2022/08/30 05:30:46;;;;;;;10.55;4.28;;;26.40;69.20;;;;;;5012261;28;20274;-81
2022/08/30 05:33:15;;;;;;;9.77;4.78;;;26.40;69.30;;;;;;5019603;28;20212;-79
2022/08/30 05:35:43;;;;;;;8.45;4.18;;;26.50;69.20;;;;;;5034056;28;20210;-79
2022/08/30 05:38:12;;;;;;;14.45;4.68;;;26.50;69.10;;;;;;5013564;28;20203;-80
2022/08/30 05:40:41;;;;;;;6.82;4.05;;;26.50;69.10;;;;;;5024449;28;20199;-80
2022/08/30 05:43:13;;;;;;;8.93;4.18;;;26.60;69.10;;;;;;5022190;28;20907;-80
2022/08/30 05:45:42;;;;;;;8.82;4.05;;;26.70;69.20;;;;;;5019951;28;20214;-83
2022/08/30 05:48:11;;;;;;;5.80;3.78;;;26.70;69.10;;;;;;5022706;28;20863;-83
2022/08/30 05:50:40;;;;;;;10.05;4.03;;;26.70;68.90;;;;;;5023683;28;20208;-78
2022/08/30 05:53:09;;;;;;;13.38;4.97;;;26.70;68.80;;;;;;5018352;28;20204;-82
2022/08/30 05:55:37;;;;;;;13.35;4.40;;;26.80;68.80;;;;;;5021151;28;20207;-80
2022/08/30 05:58:06;;;;;;;10.30;4.83;;;26.80;68.80;;;;;;5015706;28;20442;-82
2022/08/30 06:00:36;;;;;;;10.40;4.68;;;26.90;68.90;;;;;;5022521;28;20887;-82
2022/08/30 06:03:06;;;;;;;16.15;4.80;;;27.00;68.80;;;;;;5020458;28;20290;-79
2022/08/30 06:05:38;;;;;;;14.35;5.00;;;27.00;68.70;;;;;;5007628;28;20258;-82
2022/08/30 06:08:07;;;;;;;10.77;4.30;;;27.00;68.50;;;;;;5013888;28;20227;-80
2022/08/30 06:10:38;;;;;;;12.52;4.75;;;27.00;68.50;;;;;;5013060;28;20207;-77
2022/08/30 06:13:07;;;;;;;11.48;4.53;;;27.00;68.60;;;;;;5020433;28;20287;-75
2022/08/30 06:15:36;;;;;;;13.77;3.95;;;27.10;68.60;;;;;;5018856;28;20203;-80
2022/08/30 06:18:09;;;;;;;11.73;4.70;;;27.10;68.50;;;;;;5012527;28;20206;-79
2022/08/30 06:20:41;;;;;;;13.18;4.95;;;27.10;68.40;;;;;;5006946;28;20629;-80
2022/08/30 06:23:10;;;;;;;9.57;4.55;;;27.20;68.50;;;;;;5018184;28;20198;-80
2022/08/30 06:25:39;;;;;;;12.45;4.45;;;27.20;68.30;;;;;;5013895;28;20196;-80
2022/08/30 06:28:10;;;;;;;9.13;4.38;;;27.30;68.40;;;;;;5019938;28;20203;-77
2022/08/30 06:30:40;;;;;;;9.20;4.40;;;27.30;68.30;;;;;;5021365;28;20200;-82
2022/08/30 06:33:11;;;;;;;10.27;4.80;;;27.40;68.30;;;;;;5022788;28;20222;-81
2022/08/30 06:35:39;;;;;;;8.98;4.70;;;27.40;68.10;;;;;;5021774;28;20206;-80
2022/08/30 06:38:26;;;;;;;8.40;4.30;;;27.50;68.20;;;;;;5019531;28;20286;-79
2022/08/30 06:40:55;;;;;;;9.45;4.45;;;27.60;68.30;;;;;;5011597;28;20192;-78
2022/08/30 06:43:23;;;;;;;8.82;4.45;;;27.70;68.30;;;;;;5015078;28;20669;-81
2022/08/30 06:45:53;;;;;;;10.75;4.88;;;27.70;68.20;;;;;;5020580;28;20235;-79
2022/08/30 06:48:23;;;;;;;9.50;4.10;;;27.80;68.20;;;;;;5019905;28;20771;-78
2022/08/30 06:50:54;;;;;;;12.38;3.92;;;27.80;67.80;;;;;;5015202;28;20214;-77
2022/08/30 06:53:23;;;;;;;7.80;4.25;;;27.90;67.70;;;;;;5020194;28;20193;-80
2022/08/30 06:55:57;;;;;;;9.65;4.43;;;28.00;67.00;;;;;;5016374;28;20196;-81
2022/08/30 06:58:26;;;;;;;11.43;4.15;;;28.00;66.90;;;;;;5015865;28;20206;-79
2022/08/30 07:00:54;;;;;;;5.65;3.60;;;28.10;66.80;;;;;;5012309;28;20803;-80
2022/08/30 07:03:26;;;;;;;6.88;3.85;;;28.10;66.40;;;;;;5012570;28;20281;-80
2022/08/30 07:05:55;;;;;;;10.95;4.40;;;28.20;66.50;;;;;;5018984;28;20627;-81
2022/08/30 07:08:25;;;;;;;10.25;4.00;;;28.30;66.50;;;;;;5016664;28;20242;-81
2022/08/30 07:10:54;;;;;;;12.55;4.43;;;28.40;66.30;;;;;;5022895;28;20195;-82
2022/08/30 07:13:24;;;;;;;12.82;4.55;;;28.40;66.30;;;;;;5009176;28;20231;-83
2022/08/30 07:15:52;;;;;;;9.27;4.72;;;28.50;66.20;;;;;;5017728;28;20207;-81
2022/08/30 07:21:10;;;;;;;12.80;4.70;;;28.60;65.80;;;;;;5020186;28;20179;-83
2022/08/30 07:23:39;;;;;;;7.47;3.92;;;28.70;65.80;;;;;;5020319;28;20206;-82
2022/08/30 07:26:10;;;;;;;10.15;4.22;;;28.70;65.60;;;;;;5020796;28;20922;-82
2022/08/30 07:28:41;;;;;;;11.77;4.35;;;28.80;65.60;;;;;;5018038;28;20279;-81
2022/08/30 07:31:10;;;;;;;9.32;4.38;;;28.90;65.50;;;;;;5019962;28;20192;-82
2022/08/30 07:33:40;;;;;;;10.75;3.80;;;28.90;65.20;;;;;;5020366;28;20310;-81
2022/08/30 07:36:10;;;;;;;11.70;4.55;;;28.90;65.10;;;;;;5021609;28;20261;-84
2022/08/30 07:38:40;;;;;;;9.55;4.25;;;29.00;64.70;;;;;;5021013;28;20642;-84
2022/08/30 07:41:08;;;;;;;10.13;3.85;;;29.10;64.80;;;;;;5009309;28;20200;-80
2022/08/30 07:43:37;;;;;;;12.00;3.90;;;29.10;64.70;;;;;;5009168;28;20196;-80
2022/08/30 07:46:08;;;;;;;12.10;3.53;;;29.20;64.30;;;;;;5015345;28;20286;-83
2022/08/30 07:48:37;;;;;;;11.18;3.97;;;29.20;64.30;;;;;;5006883;28;20231;-84
2022/08/30 07:51:13;;;;;;;11.77;4.57;;;29.30;64.10;;;;;;5020603;28;20196;-82
2022/08/30 07:53:42;;;;;;;10.18;3.90;;;29.30;64.10;;;;;;5012934;28;20294;-81
2022/08/30 07:56:11;;;;;;;11.40;3.80;;;29.40;64.10;;;;;;5010249;28;20283;-82
2022/08/30 07:58:39;;;;;;;12.10;4.07;;;29.50;64.10;;;;;;5011244;28;20249;-82
2022/08/30 08:01:13;;;;;;;10.13;4.10;;;29.50;63.80;;;;;;5023339;28;20248;-82
2022/08/30 08:03:43;;;;;;;7.72;3.80;;;29.50;63.50;;;;;;5036020;28;20862;-79
2022/08/30 08:06:15;;;;;;;11.18;4.25;;;29.60;63.30;;;;;;5014187;28;20261;-84
2022/08/30 08:08:44;;;;;;;7.45;3.97;;;29.70;63.20;;;;;;5021799;28;20253;-81
2022/08/30 08:11:16;;;;;;;8.82;4.57;;;29.70;63.10;;;;;;5022625;28;20226;-79
2022/08/30 08:13:46;;;;;;;7.57;3.63;;;29.80;63.30;;;;;;5022618;28;20310;-83
2022/08/30 08:16:23;;;;;;;9.73;4.47;;;29.80;63.10;;;;;;5024774;28;20186;-79
2022/08/30 08:18:54;;;;;;;9.38;3.80;;;29.90;63.00;;;;;;5012603;28;20195;-83
2022/08/30 08:21:26;;;;;;;8.00;3.97;;;29.90;62.70;;;;;;5020771;28;20561;-79
2022/08/30 08:23:55;;;;;;;17.83;4.13;;;30.00;62.60;;;;;;5022990;28;20290;-81
2022/08/30 08:26:25;;;;;;;10.73;4.00;;;30.00;62.30;;;;;;5021326;28;20906;-81
2022/08/30 08:28:56;;;;;;;8.00;3.58;;;30.10;62.10;;;;;;5012954;28;20262;-82
2022/08/30 08:31:28;;;;;;;7.40;3.70;;;30.10;61.70;;;;;;5017710;28;21048;-82
2022/08/30 08:34:04;;;;;;;12.45;4.25;;;30.20;61.20;;;;;;5019568;28;20252;-81
2022/08/30 08:36:35;;;;;;;12.75;4.22;;;30.20;61.10;;;;;;5019475;28;20234;-81
2022/08/30 08:39:05;;;;;;;17.27;4.60;;;30.30;60.80;;;;;;5011462;28;20204;-80
2022/08/30 08:41:49;;;;;;;9.40;3.40;;;30.30;60.50;;;;;;5015068;28;20207;-80
2022/08/30 08:44:33;;;;;;;12.00;3.75;;;30.30;60.10;;;;;;5015556;28;20193;-81
2022/08/30 08:47:11;;;;;;;8.82;4.82;;;30.40;60.40;;;;;;5020162;28;20204;-83
2022/08/30 08:49:45;;;;;;;9.18;3.97;;;30.40;60.20;;;;;;5018127;28;20599;-83
2022/08/30 08:55:11;;;;;;;9.90;4.05;;;30.50;60.30;;;;;;5018599;28;20277;-83
2022/08/30 08:57:40;;;;;;;10.65;3.95;;;30.60;59.80;;;;;;5013597;28;20469;-83
2022/08/30 09:00:11;;;;;;;8.73;3.97;;;30.70;59.90;;;;;;5010039;28;20231;-82
2022/08/30 09:02:47;;;;;;;7.38;4.10;;;30.70;59.70;;;;;;5020543;28;20216;-83
2022/08/30 09:05:40;;;;;;;11.02;3.63;;;30.80;59.30;;;;;;5021177;28;20206;-83
2022/08/30 09:08:15;;;;;;;13.65;4.05;;;30.80;59.40;;;;;;5014626;28;20220;-82
2022/08/30 09:10:50;;;;;;;7.78;3.53;;;30.90;59.30;;;;;;5017721;28;20187;-79
2022/08/30 09:13:23;;;;;;;7.40;3.83;;;30.90;58.90;;;;;;5021607;28;20924;-82
2022/08/30 09:15:58;;;;;;;9.80;4.07;;;31.00;58.90;;;;;;5019370;28;20196;-82
2022/08/30 09:18:43;;;;;;;7.78;3.40;;;31.10;58.90;;;;;;5008487;28;20183;-81
2022/08/30 09:21:14;;;;;;;11.65;3.53;;;31.10;57.90;;;;;;5011633;28;20203;-79
2022/08/30 09:23:50;;;;;;;13.57;3.70;;;31.10;58.20;;;;;;5010381;28;20283;-80
2022/08/30 09:26:29;;;;;;;13.65;4.30;;;31.20;58.10;;;;;;5019323;28;20203;-79
2022/08/30 09:28:59;;;;;;;13.70;4.07;;;31.20;58.00;;;;;;5022964;28;20188;-79
2022/08/30 09:31:30;;;;;;;13.55;4.10;;;31.30;57.70;;;;;;5023031;28;20246;-80
2022/08/30 09:34:02;;;;;;;11.10;3.45;;;31.40;57.50;;;;;;5021809;28;20215;-80
2022/08/30 09:36:39;;;;;;;9.82;4.18;;;31.40;57.50;;;;;;5021042;28;20201;-78
2022/08/30 09:39:17;;;;;;;11.02;4.10;;;31.50;57.00;;;;;;5017423;28;20277;-78
2022/08/30 09:41:48;;;;;;;7.10;4.03;;;31.50;56.60;;;;;;5018014;28;20553;-79
2022/08/30 09:44:19;;;;;;;9.30;3.97;;;31.50;56.70;;;;;;5012492;28;20192;-79
2022/08/30 09:46:51;;;;;;;10.13;3.60;;;31.60;56.90;;;;;;5018814;28;20188;-81
2022/08/30 09:49:30;;;;;;;9.02;3.70;;;31.60;56.70;;;;;;5018050;28;20215;-80
2022/08/30 09:52:08;;;;;;;15.07;4.15;;;31.70;56.50;;;;;;5017716;28;20825;-81
2022/08/30 09:54:48;;;;;;;11.98;4.00;;;31.70;56.20;;;;;;5017371;28;20837;-78
2022/08/30 09:57:27;;;;;;;6.03;3.45;;;31.80;56.00;;;;;;5019408;28;20188;-83
2022/08/30 10:00:06;;;;;;;13.55;3.88;;;31.80;55.90;;;;;;5015660;28;20850;-80
2022/08/30 10:02:58;;;;;;;10.07;3.55;;;31.80;55.70;;;;;;5019312;28;20204;-82
2022/08/30 10:05:36;;;;;;;24.10;4.50;;;31.80;55.20;;;;;;5021379;28;20793;-82
2022/08/30 10:08:16;;;;;;;12.98;4.18;;;31.90;55.30;;;;;;5015553;28;20692;-83
2022/08/30 10:10:52;;;;;;;14.52;3.85;;;32.00;55.50;;;;;;5004613;28;20683;-82
2022/08/30 10:13:51;;;;;;;15.98;3.65;;;32.00;54.40;;;;;;5014950;28;20307;-82
2022/08/30 10:16:34;;;;;;;8.75;3.47;;;32.00;54.10;;;;;;5016858;28;20193;-80
2022/08/30 10:19:18;;;;;;;10.52;3.30;;;32.10;54.30;;;;;;5016012;28;20194;-82
2022/08/30 10:21:54;;;;;;;9.63;2.95;;;32.10;53.80;;;;;;5017845;28;20207;-82
2022/08/30 10:24:29;;;;;;;8.82;3.35;;;32.20;53.60;;;;;;5010626;28;20273;-82
2022/08/30 10:27:07;;;;;;;12.70;4.03;;;32.20;53.10;;;;;;5019880;28;20249;-81
2022/08/30 10:29:42;;;;;;;11.25;3.50;;;32.30;53.20;;;;;;5015211;28;20334;-83
2022/08/30 10:32:20;;;;;;;11.23;3.72;;;32.30;53.20;;;;;;5019588;28;20270;-82
2022/08/30 10:34:54;;;;;;;13.57;4.18;;;32.40;53.00;;;;;;5016166;28;20299;-82
2022/08/30 10:37:26;;;;;;;12.80;3.80;;;32.40;52.70;;;;;;5018443;28;20195;-81
2022/08/30 10:39:57;;;;;;;9.85;3.45;;;32.50;52.70;;;;;;5012560;28;20210;-83
2022/08/30 10:42:32;;;;;;;15.52;4.00;;;32.50;52.60;;;;;;5010346;28;20198;-84
2022/08/30 10:45:13;;;;;;;9.68;3.50;;;32.50;52.30;;;;;;5013741;28;20553;-83
2022/08/30 10:47:49;;;;;;;11.35;4.13;;;32.50;52.50;;;;;;5014135;28;20279;-83
2022/08/30 10:50:23;;;;;;;15.48;4.53;;;32.60;52.50;;;;;;5012461;28;20218;-82
2022/08/30 10:52:58;;;;;;;12.25;4.38;;;32.60;52.60;;;;;;5020069;28;20200;-81
2022/08/30 10:55:30;;;;;;;11.40;3.70;;;32.70;52.60;;;;;;5007944;28;20258;-80
2022/08/30 10:58:02;;;;;;;7.50;3.22;;;32.70;52.50;;;;;;5015904;28;20555;-81
2022/08/30 11:00:38;;;;;;;10.40;3.67;;;32.80;52.40;;;;;;5015792;28;20684;-83
2022/08/30 11:03:38;;;;;;;11.13;3.80;;;32.80;51.30;;;;;;5015110;28;20211;-82
2022/08/30 11:06:21;;;;;;;12.05;3.25;;;32.90;51.10;;;;;;5012011;28;20194;-81
2022/08/30 11:09:14;;;;;;;10.68;3.65;;;32.90;51.40;;;;;;5017412;28;20238;-80
2022/08/30 11:12:01;;;;;;;11.15;3.78;;;32.90;51.50;;;;;;5014982;28;20254;-83
2022/08/30 11:14:31;;;;;;;10.82;3.45;;;32.90;51.20;;;;;;5012967;28;20613;-78
2022/08/30 11:17:01;;;;;;;10.77;3.40;;;33.00;50.80;;;;;;5015919;28;20983;-79
2022/08/30 11:19:38;;;;;;;7.60;3.08;;;33.00;50.20;;;;;;5018218;28;20192;-77
2022/08/30 11:22:13;;;;;;;9.98;3.10;;;33.00;49.80;;;;;;5020616;28;20605;-79
2022/08/30 11:25:02;;;;;;;6.95;3.38;;;33.10;50.20;;;;;;5012731;28;20191;-79
2022/08/30 11:27:47;;;;;;;15.32;3.58;;;33.10;50.00;;;;;;5020173;28;20638;-81
2022/08/30 11:30:51;;;;;;;6.72;3.45;;;33.20;50.20;;;;;;5014357;28;20242;-81
2022/08/30 11:33:44;;;;;;;9.35;3.03;;;33.20;50.00;;;;;;5016158;28;20230;-80
2022/08/30 11:37:11;;;;;;;10.98;4.20;;;33.30;50.30;;;;;;5010818;28;20203;-82
2022/08/30 11:40:06;;;;;;;9.50;3.17;;;33.30;50.50;;;;;;5016226;28;20195;-79
2022/08/30 11:42:44;;;;;;;12.95;3.58;;;33.30;50.20;;;;;;5012774;28;20219;-80
2022/08/30 11:45:43;;;;;;;9.30;3.58;;;33.40;50.40;;;;;;5017629;28;20771;-81
2022/08/30 11:48:51;;;;;;;11.18;3.30;;;33.40;50.20;;;;;;5017822;28;20198;-79
2022/08/30 11:51:49;;;;;;;7.93;3.83;;;33.50;50.30;;;;;;5007186;28;20192;-80
2022/08/30 11:54:52;;;;;;;11.38;3.88;;;33.60;50.10;;;;;;5016766;28;20226;-81
2022/08/30 11:57:27;;;;;;;9.32;3.58;;;33.60;49.80;;;;;;5015103;28;20196;-79
2022/08/30 12:00:06;;;;;;;13.38;3.63;;;33.60;49.70;;;;;;5016069;28;20195;-76
2022/08/30 12:02:55;;;;;;;10.40;3.95;;;33.60;49.50;;;;;;5016586;28;20865;-77
2022/08/30 12:05:53;;;;;;;10.52;3.92;;;33.70;50.40;;;;;;5012119;28;20200;-77
2022/08/30 12:08:54;;;;;;;12.73;3.47;;;33.80;49.90;;;;;;5029623;28;20245;-78
2022/08/30 12:12:02;;;;;;;8.35;3.35;;;33.80;50.00;;;;;;5041699;28;20712;-78
2022/08/30 12:14:47;;;;;;;12.00;4.05;;;33.90;50.00;;;;;;5036618;28;20720;-78
2022/08/30 12:20:27;;;;;;;12.05;3.55;;;34.00;49.60;;;;;;5032188;28;20191;-84
2022/08/30 12:22:56;;;;;;;10.18;3.67;;;34.00;49.80;;;;;;5034804;28;20201;-78
2022/08/30 12:25:31;;;;;;;12.07;3.97;;;34.00;49.90;;;;;;5037373;28;20278;-78
2022/08/30 12:28:11;;;;;;;11.70;3.92;;;34.10;50.00;;;;;;5036213;28;20209;-77
2022/08/30 12:30:40;;;;;;;10.85;3.90;;;34.10;49.80;;;;;;5033105;28;20195;-79
2022/08/30 12:33:12;;;;;;;10.05;3.67;;;34.10;49.90;;;;;;5035610;28;20607;-79
2022/08/30 12:35:43;;;;;;;11.65;3.65;;;34.10;49.90;;;;;;5038531;28;20803;-76
2022/08/30 12:38:18;;;;;;;12.60;3.67;;;34.10;49.30;;;;;;5036732;28;20199;-77
2022/08/30 12:41:01;;;;;;;11.85;3.70;;;34.20;49.50;;;;;;5041286;28;20198;-78
2022/08/30 12:43:37;;;;;;;12.80;3.90;;;34.20;49.70;;;;;;5040751;28;20203;-78
2022/08/30 12:46:14;;;;;;;13.70;3.75;;;34.30;50.10;;;;;;5032254;28;20313;-79
2022/08/30 12:48:44;;;;;;;11.00;4.00;;;34.30;49.10;;;;;;5042366;28;20556;-78
2022/08/30 12:51:28;;;;;;;13.85;4.07;;;34.30;49.00;;;;;;5040442;28;20202;-78
2022/08/30 12:54:06;;;;;;;10.63;3.65;;;34.30;48.90;;;;;;5041506;28;20199;-75
2022/08/30 12:56:56;;;;;;;9.20;3.60;;;34.40;49.00;;;;;;5041538;28;20201;-78
2022/08/30 12:59:51;;;;;;;9.77;3.90;;;34.40;48.90;;;;;;5035576;28;20230;-77
2022/08/30 13:02:41;;;;;;;13.82;4.05;;;34.40;48.70;;;;;;5037331;28;20662;-79
2022/08/30 13:05:30;;;;;;;6.15;3.25;;;34.40;48.80;;;;;;5040247;28;20202;-77
2022/08/30 13:08:27;;;;;;;8.82;3.17;;;34.40;48.90;;;;;;5030156;28;20219;-77
2022/08/30 13:10:59;;;;;;;12.18;3.97;;;34.40;49.00;;;;;;5037343;28;20725;-78
2022/08/30 13:13:41;;;;;;;11.90;3.35;;;34.40;49.10;;;;;;5038139;28;20199;-78
2022/08/30 13:16:27;;;;;;;13.55;3.65;;;34.40;49.00;;;;;;5041327;28;20290;-78
2022/08/30 13:19:25;;;;;;;10.27;3.28;;;34.50;48.90;;;;;;5040852;28;20199;-77
2022/08/30 13:21:56;;;;;;;12.23;3.58;;;34.50;48.60;;;;;;5039299;28;20222;-76
2022/08/30 13:24:25;;;;;;;6.88;3.15;;;34.50;48.70;;;;;;5040001;28;20195;-77